createdAt,value
2023-04-06T00:00:38.485Z,97834.34
2023-04-06T00:03:07.037Z,97834.47
2023-04-06T00:05:35.532Z,97798.91
2023-04-06T00:08:03.852Z,97831.84
2023-04-06T00:10:32.345Z,97827.41
2023-04-06T00:13:02.356Z,97682.81
2023-04-06T00:15:30.746Z,97824.00
2023-04-06T00:17:59.084Z,97820.63
2023-04-06T00:20:27.632Z,97819.66
2023-04-06T00:22:56.334Z,97794.56
2023-04-06T00:25:24.761Z,97814.59
2023-04-06T00:27:53.090Z,97807.53
2023-04-06T00:30:22.930Z,97703.69
2023-04-06T00:32:51.307Z,97802.31
2023-04-06T00:35:19.713Z,97770.38
2023-04-06T00:37:49.184Z,97800.84
2023-04-06T00:40:18.256Z,97799.97
2023-04-06T00:42:46.608Z,97778.09
2023-04-06T00:45:14.958Z,97799.72
2023-04-06T00:47:44.801Z,97800.50
2023-04-06T00:50:13.086Z,97774.53
2023-04-06T00:52:41.366Z,97801.28
2023-04-06T00:55:10.241Z,97782.13
2023-04-06T00:57:38.758Z,97814.88
2023-04-06T01:00:08.497Z,97800.28
2023-04-06T01:02:36.830Z,97757.94
2023-04-06T01:05:07.550Z,97791.81
2023-04-06T01:07:35.888Z,97788.31
2023-04-06T01:10:04.826Z,97792.69
2023-04-06T01:12:33.211Z,97797.06
2023-04-06T01:15:02.138Z,97748.47
2023-04-06T01:17:30.747Z,97771.97
2023-04-06T01:19:58.992Z,97790.09
2023-04-06T01:22:28.750Z,97793.47
2023-04-06T01:24:57.790Z,97787.38
2023-04-06T01:27:27.554Z,97779.56
2023-04-06T01:29:55.967Z,97785.34
2023-04-06T01:32:24.533Z,97780.19
2023-04-06T01:34:52.893Z,97783.63
2023-04-06T01:37:21.223Z,97782.06
2023-04-06T01:39:51.236Z,97778.59
2023-04-06T01:42:19.500Z,97744.63
2023-04-06T01:44:47.798Z,97777.53
2023-04-06T01:47:16.252Z,97781.75
2023-04-06T01:49:44.443Z,97778.41
2023-04-06T01:52:12.774Z,97781.91
2023-04-06T01:54:41.022Z,97778.41
2023-04-06T01:57:10.724Z,97779.34
2023-04-06T01:59:39.037Z,97740.38
2023-04-06T02:02:07.316Z,97760.25
2023-04-06T02:04:35.591Z,97781.84
2023-04-06T02:07:03.956Z,97789.66
2023-04-06T02:09:32.257Z,97760.16
2023-04-06T02:12:01.687Z,97787.00
2023-04-06T02:14:31.474Z,97784.34
2023-04-06T02:16:59.737Z,97781.66
2023-04-06T02:19:28.061Z,97786.72
2023-04-06T02:21:56.853Z,97765.16
2023-04-06T02:24:25.185Z,97741.00
2023-04-06T02:26:53.389Z,97778.94
2023-04-06T02:29:21.653Z,97778.06
2023-04-06T02:31:51.385Z,97778.03
2023-04-06T02:34:19.664Z,97775.47
2023-04-06T02:36:48.232Z,97646.53
2023-04-06T02:39:16.841Z,97770.28
2023-04-06T02:41:45.166Z,97768.75
2023-04-06T02:44:13.493Z,97088.47
2023-04-06T02:46:41.800Z,97776.25
2023-04-06T02:49:11.593Z,97772.72
2023-04-06T02:51:39.906Z,97749.44
2023-04-06T02:54:08.221Z,97751.94
2023-04-06T02:56:36.594Z,97763.16
2023-04-06T02:59:04.943Z,97645.41
2023-04-06T03:01:33.367Z,97766.66
2023-04-06T03:04:01.649Z,97760.69
2023-04-06T03:06:31.477Z,97758.13
2023-04-06T03:08:59.800Z,97759.81
2023-04-06T03:11:28.691Z,97758.88
2023-04-06T03:13:57.025Z,97760.69
2023-04-06T03:16:25.691Z,97763.94
2023-04-06T03:18:53.979Z,97770.63
2023-04-06T03:21:22.282Z,97767.97
2023-04-06T03:23:52.239Z,97768.91
2023-04-06T03:26:20.666Z,97769.03
2023-04-06T03:28:48.959Z,97765.59
2023-04-06T03:31:17.232Z,97772.56
2023-04-06T03:33:45.597Z,97761.34
2023-04-06T03:36:13.933Z,97701.53
2023-04-06T03:38:42.197Z,97743.13
2023-04-06T03:41:12.066Z,97765.78
2023-04-06T03:43:40.322Z,97773.28
2023-04-06T03:46:08.556Z,97769.00
2023-04-06T03:48:37.442Z,97775.84
2023-04-06T03:51:06.049Z,97752.50
2023-04-06T03:53:34.324Z,97777.63
2023-04-06T03:56:04.769Z,97782.56
2023-04-06T03:58:34.821Z,97763.19
2023-04-06T04:01:03.089Z,97748.38
2023-04-06T04:03:31.440Z,97779.63
2023-04-06T04:05:59.864Z,97764.09
2023-04-06T04:08:28.084Z,97759.84
2023-04-06T04:10:56.363Z,97753.91
2023-04-06T04:13:24.784Z,97783.84
2023-04-06T04:15:54.484Z,97789.75
2023-04-06T04:18:22.747Z,97788.03
2023-04-06T04:20:50.946Z,97793.19
2023-04-06T04:23:19.241Z,97788.06
2023-04-06T04:25:47.576Z,97799.34
2023-04-06T04:28:15.770Z,97795.88
2023-04-06T04:30:44.145Z,97800.16
2023-04-06T04:33:14.027Z,97798.56
2023-04-06T04:35:42.405Z,97798.66
2023-04-06T04:38:10.663Z,97808.84
2023-04-06T04:40:39.082Z,97806.34
2023-04-06T04:43:07.405Z,97813.38
2023-04-06T04:45:35.848Z,97811.63
2023-04-06T04:48:05.972Z,97807.31
2023-04-06T04:50:35.844Z,97790.84
2023-04-06T04:53:06.360Z,97761.31
2023-04-06T04:55:34.692Z,97816.13
2023-04-06T04:58:03.663Z,97810.13
2023-04-06T05:00:31.977Z,97816.44
2023-04-06T05:03:00.351Z,97799.53
2023-04-06T05:05:28.730Z,97802.19
2023-04-06T05:07:59.353Z,97778.97
2023-04-06T05:10:27.661Z,97739.38
2023-04-06T05:12:55.976Z,97793.19
2023-04-06T05:15:24.220Z,97775.97
2023-04-06T05:17:53.290Z,97802.91
2023-04-06T05:20:21.626Z,97739.84
2023-04-06T05:22:49.936Z,97804.00
2023-04-06T05:25:19.752Z,97753.97
2023-04-06T05:27:48.055Z,97805.94
2023-04-06T05:30:17.072Z,97800.84
2023-04-06T05:32:45.620Z,97799.97
2023-04-06T05:35:13.919Z,97798.25
2023-04-06T05:37:42.827Z,97747.22
2023-04-06T05:40:11.717Z,97790.69
2023-04-06T05:42:42.218Z,97797.75
2023-04-06T05:45:17.769Z,97823.75
2023-04-06T05:47:46.606Z,97676.91
2023-04-06T05:50:16.394Z,97790.38
2023-04-06T05:52:47.450Z,97773.16
2023-04-06T05:55:15.675Z,97790.56
2023-04-06T05:57:45.500Z,97791.53
2023-04-06T06:00:15.653Z,97785.56
2023-04-06T06:02:44.511Z,97748.44
2023-04-06T06:05:12.923Z,97784.75
2023-04-06T06:07:41.505Z,97768.34
2023-04-06T06:10:14.808Z,97694.81
2023-04-06T06:12:44.685Z,97788.22
2023-04-06T06:15:13.894Z,97786.53
2023-04-06T06:17:42.280Z,97777.94
2023-04-06T06:20:11.453Z,97784.88
2023-04-06T06:22:41.281Z,97786.63
2023-04-06T06:25:18.762Z,97697.63
2023-04-06T06:27:48.487Z,97781.44
2023-04-06T06:30:17.175Z,97780.56
2023-04-06T06:32:45.692Z,97780.56
2023-04-06T06:35:14.007Z,97784.03
2023-04-06T06:37:42.356Z,97773.59
2023-04-06T06:40:14.271Z,97783.13
2023-04-06T06:42:42.726Z,97761.53
2023-04-06T06:45:12.918Z,97774.47
2023-04-06T06:47:42.346Z,97691.50
2023-04-06T06:50:11.128Z,97753.72
2023-04-06T06:52:39.378Z,97692.38
2023-04-06T06:55:08.445Z,97770.88
2023-04-06T06:57:36.703Z,97778.63
2023-04-06T07:00:06.454Z,97757.03
2023-04-06T07:02:36.823Z,97730.19
2023-04-06T07:05:15.995Z,97770.75
2023-04-06T07:07:53.838Z,97743.88
2023-04-06T07:10:22.292Z,97727.34
2023-04-06T07:12:50.731Z,97747.06
2023-04-06T07:15:18.999Z,97765.03
2023-04-06T07:17:48.783Z,97768.41
2023-04-06T07:20:17.471Z,97762.19
2023-04-06T07:22:46.021Z,97749.97
2023-04-06T07:25:14.275Z,97710.94
2023-04-06T07:27:42.488Z,97708.25
2023-04-06T07:30:11.240Z,97750.59
2023-04-06T07:32:39.910Z,97767.00
2023-04-06T07:35:09.892Z,97766.09
2023-04-06T07:37:38.095Z,97762.44
2023-04-06T07:40:07.260Z,97764.84
2023-04-06T07:42:35.472Z,97716.44
2023-04-06T07:45:03.846Z,97758.75
2023-04-06T07:47:32.063Z,97761.47
2023-04-06T07:50:00.329Z,97752.91
2023-04-06T07:52:30.260Z,97754.56
2023-04-06T07:54:58.516Z,97746.44
2023-04-06T07:57:26.737Z,97736.63
2023-04-06T07:59:55.028Z,97738.19
2023-04-06T08:02:23.308Z,97691.56
2023-04-06T08:04:51.755Z,97712.41
2023-04-06T08:07:19.968Z,97728.28
2023-04-06T08:09:49.666Z,97721.50
2023-04-06T08:12:17.880Z,97705.16
2023-04-06T08:14:46.126Z,97705.94
2023-04-06T08:17:14.429Z,97721.16
2023-04-06T08:19:44.852Z,97712.09
2023-04-06T08:22:13.205Z,97711.81
2023-04-06T08:24:41.656Z,97694.25
2023-04-06T08:27:11.429Z,97705.00
2023-04-06T08:29:39.725Z,97683.91
2023-04-06T08:32:08.087Z,97697.66
2023-04-06T08:34:36.474Z,97694.00
2023-04-06T08:37:05.003Z,97696.47
2023-04-06T08:39:34.929Z,97680.69
2023-04-06T08:42:04.275Z,97678.50
2023-04-06T08:44:34.286Z,97680.22
2023-04-06T08:47:03.667Z,97671.44
2023-04-06T08:49:32.128Z,97646.44
2023-04-06T08:52:02.620Z,97650.81
2023-04-06T08:54:30.856Z,97662.72
2023-04-06T08:56:59.501Z,97660.00
2023-04-06T08:59:28.343Z,97660.75
2023-04-06T09:01:58.607Z,97670.09
2023-04-06T09:04:28.811Z,97653.38
2023-04-06T09:06:57.262Z,97610.19
2023-04-06T09:09:26.263Z,97644.22
2023-04-06T09:11:54.820Z,97639.66
2023-04-06T09:14:37.224Z,97628.53
2023-04-06T09:17:07.434Z,97641.06
2023-04-06T09:19:35.754Z,97625.97
2023-04-06T09:22:05.453Z,97635.44
2023-04-06T09:24:43.092Z,97629.94
2023-04-06T09:27:11.371Z,97624.66
2023-04-06T09:29:39.295Z,97614.72
2023-04-06T09:32:11.378Z,97613.03
2023-04-06T09:34:39.490Z,97611.94
2023-04-06T09:37:16.522Z,97608.91
2023-04-06T09:39:44.421Z,97597.31
2023-04-06T09:42:12.461Z,97591.91
2023-04-06T09:44:40.484Z,97600.50
2023-04-06T09:47:10.322Z,97600.44
2023-04-06T09:49:38.274Z,97593.19
2023-04-06T09:52:06.477Z,97611.78
2023-04-06T09:54:34.738Z,97596.19
2023-04-06T09:57:10.402Z,97589.50
2023-04-06T09:59:46.670Z,97573.63
2023-04-06T10:02:23.427Z,97581.28
2023-04-06T10:04:58.506Z,97569.25
2023-04-06T10:07:28.685Z,97578.47
2023-04-06T10:09:58.260Z,97568.72
2023-04-06T10:12:26.612Z,97559.09
2023-04-06T10:14:55.789Z,97454.13
2023-04-06T10:17:26.464Z,97577.03
2023-04-06T10:19:56.048Z,97563.22
2023-04-06T10:22:31.878Z,97565.78
2023-04-06T10:25:00.682Z,97544.31
2023-04-06T10:27:33.267Z,97452.31
2023-04-06T10:30:05.160Z,97562.00
2023-04-06T10:32:41.616Z,97531.41
2023-04-06T10:35:14.162Z,97548.59
2023-04-06T10:37:53.849Z,97551.91
2023-04-06T10:40:24.460Z,97419.97
2023-04-06T10:42:52.811Z,97379.28
2023-04-06T10:45:28.148Z,97462.34
2023-04-06T10:47:58.117Z,97506.53
2023-04-06T10:50:26.520Z,97526.94
2023-04-06T10:53:01.976Z,97522.22
2023-04-06T10:55:31.752Z,97523.06
2023-04-06T10:58:00.019Z,97470.69
2023-04-06T11:00:39.434Z,97410.06
2023-04-06T11:03:12.917Z,97511.50
2023-04-06T11:05:41.324Z,97505.13
2023-04-06T11:08:09.903Z,97494.13
2023-04-06T11:10:38.133Z,97509.38
2023-04-06T11:13:06.791Z,97505.00
2023-04-06T11:15:38.958Z,97510.91
2023-04-06T11:18:07.906Z,97494.81
2023-04-06T11:20:37.824Z,97491.03
2023-04-06T11:23:05.991Z,97492.72
2023-04-06T11:25:34.241Z,97490.53
2023-04-06T11:28:02.945Z,97494.72
2023-04-06T11:30:31.647Z,97483.00
2023-04-06T11:33:04.549Z,97470.44
2023-04-06T11:35:35.110Z,97472.00
2023-04-06T11:38:06.682Z,97452.13
2023-04-06T11:40:34.937Z,97467.59
2023-04-06T11:43:03.258Z,97462.44
2023-04-06T11:45:42.255Z,97467.06
2023-04-06T11:48:20.977Z,97456.00
2023-04-06T11:50:50.190Z,97461.09
2023-04-06T11:53:19.857Z,97436.00
2023-04-06T11:55:48.390Z,97443.97
2023-04-06T11:58:16.810Z,97421.47
2023-04-06T12:00:47.628Z,97377.50
2023-04-06T12:03:16.651Z,97450.09
2023-04-06T12:05:46.322Z,97439.75
2023-04-06T12:08:14.489Z,97432.84
2023-04-06T12:10:44.112Z,97366.44
2023-04-06T12:13:12.263Z,97440.38
2023-04-06T12:15:40.499Z,97437.06
2023-04-06T12:18:08.998Z,97437.94
2023-04-06T12:20:37.294Z,97401.38
2023-04-06T12:23:05.481Z,97320.84
2023-04-06T12:25:33.739Z,97423.72
2023-04-06T12:28:03.496Z,97423.72
2023-04-06T12:30:32.335Z,97428.25
2023-04-06T12:33:00.706Z,97408.94
2023-04-06T12:35:29.069Z,97418.47
2023-04-06T12:37:57.245Z,97411.31
2023-04-06T12:40:25.511Z,97406.03
2023-04-06T12:42:53.728Z,97409.19
2023-04-06T12:45:23.557Z,97403.06
2023-04-06T12:47:52.925Z,97401.13
2023-04-06T12:50:21.261Z,97398.50
2023-04-06T12:52:49.811Z,97400.84
2023-04-06T12:55:18.221Z,97373.00
2023-04-06T12:57:47.764Z,97293.25
2023-04-06T13:00:17.359Z,97395.13
2023-04-06T13:02:48.384Z,97382.25
2023-04-06T13:05:19.699Z,97389.84
2023-04-06T13:07:48.861Z,97375.09
2023-04-06T13:10:17.301Z,97369.53
2023-04-06T13:12:45.256Z,97381.28
2023-04-06T13:15:13.619Z,97393.13
2023-04-06T13:17:41.585Z,97383.41
2023-04-06T13:20:12.235Z,97268.88
2023-04-06T13:22:40.629Z,97338.47
2023-04-06T13:25:09.590Z,97333.06
2023-04-06T13:27:38.020Z,97348.50
2023-04-06T13:30:07.518Z,97363.09
2023-04-06T13:32:36.353Z,97359.97
2023-04-06T13:35:04.838Z,97377.72
2023-04-06T13:37:34.693Z,97364.09
2023-04-06T13:40:04.485Z,97363.44
2023-04-06T13:42:33.530Z,97252.78
2023-04-06T13:45:01.919Z,97364.53
2023-04-06T13:47:30.138Z,97350.66
2023-04-06T13:49:58.449Z,97358.41
2023-04-06T13:52:26.682Z,97355.56
2023-04-06T13:54:56.423Z,97351.91
2023-04-06T13:57:24.598Z,97352.94
2023-04-06T13:59:52.730Z,97356.03
2023-04-06T14:02:21.405Z,97347.25
2023-04-06T14:04:49.582Z,97343.88
2023-04-06T14:07:17.727Z,97340.66
2023-04-06T14:09:45.961Z,97339.88
2023-04-06T14:12:15.449Z,97339.38
2023-04-06T14:14:43.642Z,97313.72
2023-04-06T14:17:11.810Z,97323.09
2023-04-06T14:19:40.094Z,97307.81
2023-04-06T14:22:09.475Z,97343.16
2023-04-06T14:24:37.996Z,97344.16
2023-04-06T14:27:06.174Z,97340.47
2023-04-06T14:29:36.828Z,97351.41
2023-04-06T14:32:05.410Z,97298.22
2023-04-06T14:34:33.638Z,97294.91
2023-04-06T14:37:01.768Z,97310.81
2023-04-06T14:39:29.930Z,97344.16
2023-04-06T14:41:58.129Z,97334.06
2023-04-06T14:44:26.385Z,97339.22
2023-04-06T14:46:56.064Z,97330.72
2023-04-06T14:49:24.256Z,97338.34
2023-04-06T14:51:52.872Z,97348.50
2023-04-06T14:54:21.177Z,97341.19
2023-04-06T14:56:49.386Z,97307.53
2023-04-06T14:59:17.496Z,97324.66
2023-04-06T15:01:45.864Z,97305.13
2023-04-06T15:04:15.707Z,97318.19
2023-04-06T15:06:44.136Z,97290.09
2023-04-06T15:09:12.353Z,97316.56
2023-04-06T15:11:40.558Z,97311.88
2023-04-06T15:14:08.876Z,97313.19
2023-04-06T15:16:37.126Z,97312.03
2023-04-06T15:19:05.293Z,97311.28
2023-04-06T15:21:34.880Z,97282.63
2023-04-06T15:24:03.306Z,97313.50
2023-04-06T15:26:31.441Z,97310.22
2023-04-06T15:28:59.615Z,97298.03
2023-04-06T15:31:36.855Z,97314.41
2023-04-06T15:34:09.047Z,97326.13
2023-04-06T15:36:39.024Z,97313.97
2023-04-06T15:39:10.116Z,97320.25
2023-04-06T15:41:38.638Z,97303.69
2023-04-06T15:44:06.944Z,97321.19
2023-04-06T15:46:36.695Z,97298.78
2023-04-06T15:49:05.260Z,97331.50
2023-04-06T15:51:33.661Z,97345.53
2023-04-06T15:54:03.317Z,97271.53
2023-04-06T15:56:31.647Z,97320.09
2023-04-06T15:59:00.133Z,97335.72
2023-04-06T16:01:28.369Z,97334.47
2023-04-06T16:03:57.667Z,97338.81
2023-04-06T16:06:27.498Z,97344.19
2023-04-06T16:08:55.827Z,97352.03
2023-04-06T16:11:26.307Z,97331.50
2023-04-06T16:13:55.437Z,97314.59
2023-04-06T16:16:24.848Z,97336.78
2023-04-06T16:18:53.072Z,97352.75
2023-04-06T16:21:21.313Z,97309.63
2023-04-06T16:23:49.463Z,97334.38
2023-04-06T16:26:19.144Z,97369.03
2023-04-06T16:28:49.526Z,97368.84
2023-04-06T16:31:22.303Z,97232.97
2023-04-06T16:33:51.402Z,97384.44
2023-04-06T16:36:24.162Z,97385.84
2023-04-06T16:38:52.735Z,97304.00
2023-04-06T16:41:21.158Z,97382.69
2023-04-06T16:43:50.750Z,97400.13
2023-04-06T16:46:18.980Z,97396.88
2023-04-06T16:48:47.189Z,97403.63
2023-04-06T16:51:16.102Z,97370.72
2023-04-06T16:53:44.432Z,97408.38
2023-04-06T16:56:12.751Z,97328.09
2023-04-06T16:58:40.990Z,97406.38
2023-04-06T17:01:18.594Z,97416.09
2023-04-06T17:03:47.541Z,97417.84
2023-04-06T17:06:16.166Z,97365.88
2023-04-06T17:08:44.849Z,97259.56
2023-04-06T17:11:15.309Z,97413.69
2023-04-06T17:13:44.955Z,97376.56
2023-04-06T17:16:14.572Z,97264.94
2023-04-06T17:18:42.798Z,97406.84
2023-04-06T17:21:14.429Z,97342.09
2023-04-06T17:23:42.798Z,97419.75
2023-04-06T17:26:11.017Z,97424.53
2023-04-06T17:28:39.381Z,97397.91
2023-04-06T17:31:10.635Z,97316.88
2023-04-06T17:33:40.943Z,97441.84
2023-04-06T17:36:12.093Z,97428.59
2023-04-06T17:38:44.404Z,97391.25
2023-04-06T17:41:13.562Z,97439.72
2023-04-06T17:43:42.222Z,97479.03
2023-04-06T17:46:10.776Z,97458.22
2023-04-06T17:48:40.744Z,97461.69
2023-04-06T17:51:08.998Z,97468.78
2023-04-06T17:53:37.430Z,97463.28
2023-04-06T17:56:06.247Z,97480.44
2023-04-06T17:58:35.479Z,97479.84
2023-04-06T18:01:08.449Z,97495.66
2023-04-06T18:03:36.766Z,97486.31
2023-04-06T18:06:13.623Z,97500.41
2023-04-06T18:08:42.903Z,97496.09
2023-04-06T18:11:17.213Z,97499.88
2023-04-06T18:13:45.525Z,97483.63
2023-04-06T18:16:13.956Z,97506.75
2023-04-06T18:18:42.212Z,97489.69
2023-04-06T18:21:12.496Z,97475.19
2023-04-06T18:23:40.719Z,97462.56
2023-04-06T18:26:15.696Z,97462.75
2023-04-06T18:28:44.261Z,97496.22
2023-04-06T18:31:12.529Z,97518.72
2023-04-06T18:33:40.983Z,97514.66
2023-04-06T18:36:09.932Z,97526.97
2023-04-06T18:38:43.059Z,97522.84
2023-04-06T18:41:11.282Z,97528.19
2023-04-06T18:43:40.671Z,97523.09
2023-04-06T18:46:12.700Z,97506.72
2023-04-06T18:48:40.942Z,97525.84
2023-04-06T18:51:09.926Z,97536.31
2023-04-06T18:53:40.121Z,97513.97
2023-04-06T18:56:16.026Z,97419.50
2023-04-06T18:58:44.961Z,97510.88
2023-04-06T19:01:21.715Z,97516.13
2023-04-06T19:03:50.833Z,97515.31
2023-04-06T19:06:19.359Z,97517.94
2023-04-06T19:08:49.333Z,97484.94
2023-04-06T19:11:17.940Z,97521.06
2023-04-06T19:13:53.837Z,97520.22
2023-04-06T19:16:22.133Z,97518.66
2023-04-06T19:18:50.551Z,97544.75
2023-04-06T19:21:19.313Z,97514.38
2023-04-06T19:23:51.160Z,97511.97
2023-04-06T19:26:24.097Z,97492.47
2023-04-06T19:28:52.352Z,97542.41
2023-04-06T19:31:21.569Z,97508.91
2023-04-06T19:33:49.867Z,97539.13
2023-04-06T19:36:18.233Z,97537.63
2023-04-06T19:38:49.433Z,97519.63
2023-04-06T19:41:17.586Z,97505.16
2023-04-06T19:43:45.869Z,97523.72
2023-04-06T19:46:15.553Z,97536.50
2023-04-06T19:48:43.714Z,97534.75
2023-04-06T19:51:11.841Z,97512.69
2023-04-06T19:53:40.068Z,97540.34
2023-04-06T19:56:10.284Z,97538.63
2023-04-06T19:58:39.363Z,97539.53
2023-04-06T20:01:07.582Z,97540.50
2023-04-06T20:03:36.589Z,97521.63
2023-04-06T20:06:05.022Z,97542.28
2023-04-06T20:08:33.250Z,97541.50
2023-04-06T20:11:05.861Z,97521.63
2023-04-06T20:13:36.213Z,97462.38
2023-04-06T20:16:04.831Z,97514.03
2023-04-06T20:18:33.151Z,97506.13
2023-04-06T20:21:01.605Z,97531.22
2023-04-06T20:23:30.176Z,97537.44
2023-04-06T20:25:59.422Z,97497.88
2023-04-06T20:28:27.677Z,97531.41
2023-04-06T20:30:57.457Z,97532.25
2023-04-06T20:33:25.975Z,97540.09
2023-04-06T20:36:01.374Z,97533.34
2023-04-06T20:38:33.701Z,97515.16
2023-04-06T20:41:02.449Z,97511.72
2023-04-06T20:43:31.965Z,97521.19
2023-04-06T20:46:02.785Z,97483.31
2023-04-06T20:48:33.469Z,97523.00
2023-04-06T20:51:03.203Z,97509.31
2023-04-06T20:53:31.890Z,97522.19
2023-04-06T20:56:02.263Z,97521.41
2023-04-06T20:58:30.567Z,97516.22
2023-04-06T21:00:58.761Z,97513.63
2023-04-06T21:03:28.951Z,97520.69
2023-04-06T21:05:58.497Z,97493.09
2023-04-06T21:08:26.685Z,97498.22
2023-04-06T21:10:54.895Z,97517.25
2023-04-06T21:13:23.256Z,97511.31
2023-04-06T21:15:51.792Z,97510.44
2023-04-06T21:18:20.233Z,97511.34
2023-04-06T21:20:50.117Z,97516.63
2023-04-06T21:23:18.447Z,97507.03
2023-04-06T21:25:46.602Z,97518.28
2023-04-06T21:28:14.775Z,97511.41
2023-04-06T21:30:43.525Z,97520.03
2023-04-06T21:33:11.993Z,97520.88
2023-04-06T21:35:40.816Z,97521.03
2023-04-06T21:38:10.799Z,97427.97
2023-04-06T21:40:39.072Z,97517.63
2023-04-06T21:43:07.472Z,97513.41
2023-04-06T21:45:35.973Z,97510.78
2023-04-06T21:48:04.192Z,97517.69
2023-04-06T21:50:32.534Z,97506.38
2023-04-06T21:53:00.700Z,97512.50
2023-04-06T21:55:30.289Z,97503.00
2023-04-06T21:57:58.426Z,97505.78
2023-04-06T22:00:26.700Z,97505.81
2023-04-06T22:02:55.079Z,97503.25
2023-04-06T22:05:23.411Z,97511.09
2023-04-06T22:07:52.333Z,97511.13
2023-04-06T22:10:20.678Z,97500.75
2023-04-06T22:12:51.425Z,97501.69
2023-04-06T22:15:19.792Z,97504.41
2023-04-06T22:17:48.211Z,97506.16
2023-04-06T22:20:16.957Z,97515.66
2023-04-06T22:22:47.922Z,97498.28
2023-04-06T22:25:16.174Z,97493.13
2023-04-06T22:27:44.333Z,97492.31
2023-04-06T22:30:14.172Z,97499.25
2023-04-06T22:32:42.375Z,97499.22
2023-04-06T22:35:11.243Z,97476.78
2023-04-06T22:37:43.295Z,97504.44
2023-04-06T22:40:12.445Z,97493.25
2023-04-06T22:42:40.704Z,97488.94
2023-04-06T22:45:09.810Z,97490.72
2023-04-06T22:47:39.535Z,97470.94
2023-04-06T22:50:09.611Z,97494.16
2023-04-06T22:55:06.517Z,97489.03
2023-04-06T22:57:34.677Z,97454.63
2023-04-06T23:00:05.642Z,97497.72
2023-04-06T23:02:34.079Z,97486.47
2023-04-06T23:05:03.808Z,97493.34
2023-04-06T23:07:32.902Z,97488.16
2023-04-06T23:10:01.241Z,97492.50
2023-04-06T23:12:29.408Z,97483.88
2023-04-06T23:14:57.657Z,97492.66
2023-04-06T23:17:26.045Z,97466.00
2023-04-06T23:19:54.488Z,97484.03
2023-04-06T23:22:24.066Z,97432.44
2023-04-06T23:24:52.165Z,97502.34
2023-04-06T23:27:20.307Z,97500.69
2023-04-06T23:29:48.412Z,97492.06
2023-04-06T23:32:16.763Z,97494.66
2023-04-06T23:34:44.962Z,97471.44
2023-04-06T23:37:13.202Z,97500.75
2023-04-06T23:39:42.960Z,97478.34
2023-04-06T23:42:11.249Z,97494.69
2023-04-06T23:44:39.347Z,97494.69
2023-04-06T23:47:07.572Z,97491.25
2023-04-06T23:49:35.965Z,97464.50
2023-04-06T23:52:04.133Z,97480.88
2023-04-06T23:54:32.302Z,97485.19
2023-04-06T23:57:02.149Z,97488.63
2023-04-06T23:59:30.277Z,97484.31
